sensor_id;sensor_type;location;lat;lon;timestamp;temperature;humidity
43679;DHT22;29279;50.858;4.392;2023-11-19T00:02:10;13.70;99.90
43679;DHT22;29279;50.858;4.392;2023-11-19T00:04:39;13.70;99.90
43679;DHT22;29279;50.858;4.392;2023-11-19T00:07:05;13.80;99.90
43679;DHT22;29279;50.858;4.392;2023-11-19T00:09:36;13.70;99.90
43679;DHT22;29279;50.858;4.392;2023-11-19T00:12:06;13.70;99.90
43679;DHT22;29279;50.858;4.392;2023-11-19T00:14:33;13.70;99.90
43679;DHT22;29279;50.858;4.392;2023-11-19T00:17:00;13.60;99.90
43679;DHT22;29279;50.858;4.392;2023-11-19T00:19:25;13.70;99.90
43679;DHT22;29279;50.858;4.392;2023-11-19T00:21:52;13.70;99.90
43679;DHT22;29279;50.858;4.392;2023-11-19T00:24:17;13.70;99.90
43679;DHT22;29279;50.858;4.392;2023-11-19T00:26:43;13.70;99.90
43679;DHT22;29279;50.858;4.392;2023-11-19T00:29:09;13.70;99.90
43679;DHT22;29279;50.858;4.392;2023-11-19T00:31:36;13.60;99.90
43679;DHT22;29279;50.858;4.392;2023-11-19T00:34:02;13.60;99.90
43679;DHT22;29279;50.858;4.392;2023-11-19T00:36:28;13.60;99.90
43679;DHT22;29279;50.858;4.392;2023-11-19T00:38:54;13.70;99.90
43679;DHT22;29279;50.858;4.392;2023-11-19T00:41:20;13.70;99.90
43679;DHT22;29279;50.858;4.392;2023-11-19T00:43:46;13.60;99.90
43679;DHT22;29279;50.858;4.392;2023-11-19T00:46:12;13.60;99.90
43679;DHT22;29279;50.858;4.392;2023-11-19T00:48:39;13.60;99.90
43679;DHT22;29279;50.858;4.392;2023-11-19T00:51:06;13.60;99.90
43679;DHT22;29279;50.858;4.392;2023-11-19T00:53:33;13.60;99.90
43679;DHT22;29279;50.858;4.392;2023-11-19T00:55:59;13.50;99.90
43679;DHT22;29279;50.858;4.392;2023-11-19T00:58:25;13.50;99.90
43679;DHT22;29279;50.858;4.392;2023-11-19T01:00:51;13.50;99.90
43679;DHT22;29279;50.858;4.392;2023-11-19T01:03:17;13.50;99.90
43679;DHT22;29279;50.858;4.392;2023-11-19T01:05:42;13.60;99.90
43679;DHT22;29279;50.858;4.392;2023-11-19T01:08:10;13.60;99.90
43679;DHT22;29279;50.858;4.392;2023-11-19T01:10:38;13.60;99.90
43679;DHT22;29279;50.858;4.392;2023-11-19T01:13:04;13.50;99.90
43679;DHT22;29279;50.858;4.392;2023-11-19T01:15:33;13.50;99.90
43679;DHT22;29279;50.858;4.392;2023-11-19T01:18:00;13.50;99.90
43679;DHT22;29279;50.858;4.392;2023-11-19T01:20:30;13.60;99.90
43679;DHT22;29279;50.858;4.392;2023-11-19T01:22:56;13.60;99.90
43679;DHT22;29279;50.858;4.392;2023-11-19T01:25:21;13.60;99.90
43679;DHT22;29279;50.858;4.392;2023-11-19T01:27:47;13.60;99.90
43679;DHT22;29279;50.858;4.392;2023-11-19T01:30:13;13.60;99.90
43679;DHT22;29279;50.858;4.392;2023-11-19T01:32:39;13.70;99.90
43679;DHT22;29279;50.858;4.392;2023-11-19T01:35:06;13.70;99.90
43679;DHT22;29279;50.858;4.392;2023-11-19T01:37:33;13.70;99.90
43679;DHT22;29279;50.858;4.392;2023-11-19T01:40:00;13.70;99.90
43679;DHT22;29279;50.858;4.392;2023-11-19T01:42:25;13.60;99.90
43679;DHT22;29279;50.858;4.392;2023-11-19T01:44:57;13.50;99.90
43679;DHT22;29279;50.858;4.392;2023-11-19T01:47:23;13.40;99.90
43679;DHT22;29279;50.858;4.392;2023-11-19T01:49:50;13.40;99.90
43679;DHT22;29279;50.858;4.392;2023-11-19T01:52:16;13.30;99.90
43679;DHT22;29279;50.858;4.392;2023-11-19T01:54:42;13.30;99.90
43679;DHT22;29279;50.858;4.392;2023-11-19T01:57:09;13.30;99.90
43679;DHT22;29279;50.858;4.392;2023-11-19T01:59:34;13.30;99.90
43679;DHT22;29279;50.858;4.392;2023-11-19T02:02:00;13.30;99.90
43679;DHT22;29279;50.858;4.392;2023-11-19T02:04:26;13.40;99.90
43679;DHT22;29279;50.858;4.392;2023-11-19T02:06:54;13.40;99.90
43679;DHT22;29279;50.858;4.392;2023-11-19T02:09:21;13.30;99.90
43679;DHT22;29279;50.858;4.392;2023-11-19T02:11:47;13.30;99.90
43679;DHT22;29279;50.858;4.392;2023-11-19T02:14:17;13.30;99.90
43679;DHT22;29279;50.858;4.392;2023-11-19T02:16:43;13.30;99.90
43679;DHT22;29279;50.858;4.392;2023-11-19T02:19:09;13.40;99.90
43679;DHT22;29279;50.858;4.392;2023-11-19T02:21:38;13.40;99.90
43679;DHT22;29279;50.858;4.392;2023-11-19T02:24:06;13.30;99.90
43679;DHT22;29279;50.858;4.392;2023-11-19T02:26:39;13.30;99.90
43679;DHT22;29279;50.858;4.392;2023-11-19T02:29:05;13.20;99.90
43679;DHT22;29279;50.858;4.392;2023-11-19T02:31:32;13.20;99.90
43679;DHT22;29279;50.858;4.392;2023-11-19T02:33:59;13.20;99.90
43679;DHT22;29279;50.858;4.392;2023-11-19T02:36:26;13.20;99.90
43679;DHT22;29279;50.858;4.392;2023-11-19T02:38:51;13.20;99.90
43679;DHT22;29279;50.858;4.392;2023-11-19T02:41:17;13.10;99.90
43679;DHT22;29279;50.858;4.392;2023-11-19T02:43:43;13.20;99.90
43679;DHT22;29279;50.858;4.392;2023-11-19T02:46:08;13.20;99.90
43679;DHT22;29279;50.858;4.392;2023-11-19T02:48:37;13.20;99.90
43679;DHT22;29279;50.858;4.392;2023-11-19T02:51:03;13.20;99.90
43679;DHT22;29279;50.858;4.392;2023-11-19T02:53:32;13.20;99.90
43679;DHT22;29279;50.858;4.392;2023-11-19T02:55:58;13.20;99.90
43679;DHT22;29279;50.858;4.392;2023-11-19T02:58:31;13.20;99.90
43679;DHT22;29279;50.858;4.392;2023-11-19T03:00:57;13.20;99.90
43679;DHT22;29279;50.858;4.392;2023-11-19T03:03:25;13.20;99.90
43679;DHT22;29279;50.858;4.392;2023-11-19T03:05:57;13.10;99.90
43679;DHT22;29279;50.858;4.392;2023-11-19T03:08:22;13.10;99.90
43679;DHT22;29279;50.858;4.392;2023-11-19T03:10:48;13.00;99.90
43679;DHT22;29279;50.858;4.392;2023-11-19T03:13:15;12.90;99.90
43679;DHT22;29279;50.858;4.392;2023-11-19T03:15:42;12.80;99.90
43679;DHT22;29279;50.858;4.392;2023-11-19T03:18:08;12.80;99.90
43679;DHT22;29279;50.858;4.392;2023-11-19T03:20:34;12.70;99.90
43679;DHT22;29279;50.858;4.392;2023-11-19T03:22:59;12.60;99.90
43679;DHT22;29279;50.858;4.392;2023-11-19T03:25:28;12.60;99.90
43679;DHT22;29279;50.858;4.392;2023-11-19T03:28:00;12.60;99.90
43679;DHT22;29279;50.858;4.392;2023-11-19T03:30:26;12.50;99.90
43679;DHT22;29279;50.858;4.392;2023-11-19T03:32:54;12.60;99.90
43679;DHT22;29279;50.858;4.392;2023-11-19T03:35:19;12.50;99.90
43679;DHT22;29279;50.858;4.392;2023-11-19T03:37:45;12.50;99.90
43679;DHT22;29279;50.858;4.392;2023-11-19T03:40:12;12.50;99.90
43679;DHT22;29279;50.858;4.392;2023-11-19T03:42:37;12.40;99.90
43679;DHT22;29279;50.858;4.392;2023-11-19T03:45:06;12.40;99.90
43679;DHT22;29279;50.858;4.392;2023-11-19T03:47:34;12.40;99.90
43679;DHT22;29279;50.858;4.392;2023-11-19T03:50:00;12.40;99.90
43679;DHT22;29279;50.858;4.392;2023-11-19T03:52:25;12.50;99.90
43679;DHT22;29279;50.858;4.392;2023-11-19T03:54:52;12.60;99.90
43679;DHT22;29279;50.858;4.392;2023-11-19T03:57:21;12.50;99.90
43679;DHT22;29279;50.858;4.392;2023-11-19T03:59:46;12.50;99.90
43679;DHT22;29279;50.858;4.392;2023-11-19T04:02:12;12.40;99.90
43679;DHT22;29279;50.858;4.392;2023-11-19T04:04:38;12.30;99.90
43679;DHT22;29279;50.858;4.392;2023-11-19T04:07:05;12.30;99.90
43679;DHT22;29279;50.858;4.392;2023-11-19T04:09:31;12.30;99.90
43679;DHT22;29279;50.858;4.392;2023-11-19T04:11:58;12.30;99.90
43679;DHT22;29279;50.858;4.392;2023-11-19T04:14:24;12.40;99.90
43679;DHT22;29279;50.858;4.392;2023-11-19T04:16:50;12.40;99.90
43679;DHT22;29279;50.858;4.392;2023-11-19T04:19:17;12.40;99.90
43679;DHT22;29279;50.858;4.392;2023-11-19T04:21:43;12.40;99.90
43679;DHT22;29279;50.858;4.392;2023-11-19T04:24:10;12.40;99.90
43679;DHT22;29279;50.858;4.392;2023-11-19T04:26:44;12.30;99.90
43679;DHT22;29279;50.858;4.392;2023-11-19T04:29:15;12.30;99.90
43679;DHT22;29279;50.858;4.392;2023-11-19T04:31:42;12.30;99.90
43679;DHT22;29279;50.858;4.392;2023-11-19T04:34:08;12.20;99.90
43679;DHT22;29279;50.858;4.392;2023-11-19T04:36:34;12.20;99.90
43679;DHT22;29279;50.858;4.392;2023-11-19T04:39:00;12.20;99.90
43679;DHT22;29279;50.858;4.392;2023-11-19T04:41:26;12.20;99.90
43679;DHT22;29279;50.858;4.392;2023-11-19T04:43:55;12.20;99.90
43679;DHT22;29279;50.858;4.392;2023-11-19T04:46:21;12.20;99.90
43679;DHT22;29279;50.858;4.392;2023-11-19T04:48:47;12.10;99.90
43679;DHT22;29279;50.858;4.392;2023-11-19T04:51:13;12.20;99.90
43679;DHT22;29279;50.858;4.392;2023-11-19T04:53:38;12.20;99.90
43679;DHT22;29279;50.858;4.392;2023-11-19T04:56:10;12.30;99.90
43679;DHT22;29279;50.858;4.392;2023-11-19T04:58:36;12.30;99.90
43679;DHT22;29279;50.858;4.392;2023-11-19T05:01:03;12.30;99.90
43679;DHT22;29279;50.858;4.392;2023-11-19T05:03:29;12.30;99.90
43679;DHT22;29279;50.858;4.392;2023-11-19T05:05:55;12.30;99.90
43679;DHT22;29279;50.858;4.392;2023-11-19T05:08:21;12.30;99.90
43679;DHT22;29279;50.858;4.392;2023-11-19T05:10:46;12.30;99.90
43679;DHT22;29279;50.858;4.392;2023-11-19T05:13:12;12.20;99.90
43679;DHT22;29279;50.858;4.392;2023-11-19T05:15:38;12.20;99.90
43679;DHT22;29279;50.858;4.392;2023-11-19T05:18:03;12.10;99.90
43679;DHT22;29279;50.858;4.392;2023-11-19T05:20:30;12.20;99.90
43679;DHT22;29279;50.858;4.392;2023-11-19T05:22:56;12.10;99.90
43679;DHT22;29279;50.858;4.392;2023-11-19T05:25:22;12.10;99.90
43679;DHT22;29279;50.858;4.392;2023-11-19T05:27:47;12.10;99.90
43679;DHT22;29279;50.858;4.392;2023-11-19T05:30:13;12.10;99.90
43679;DHT22;29279;50.858;4.392;2023-11-19T05:32:39;12.20;99.90
43679;DHT22;29279;50.858;4.392;2023-11-19T05:35:05;12.10;99.90
43679;DHT22;29279;50.858;4.392;2023-11-19T05:37:31;12.10;99.90
43679;DHT22;29279;50.858;4.392;2023-11-19T05:39:56;12.20;99.90
43679;DHT22;29279;50.858;4.392;2023-11-19T05:42:22;12.20;99.90
43679;DHT22;29279;50.858;4.392;2023-11-19T05:44:49;12.20;99.90
43679;DHT22;29279;50.858;4.392;2023-11-19T05:47:14;12.20;99.90
43679;DHT22;29279;50.858;4.392;2023-11-19T05:49:40;12.20;99.90
43679;DHT22;29279;50.858;4.392;2023-11-19T05:52:06;12.10;99.90
43679;DHT22;29279;50.858;4.392;2023-11-19T05:54:33;12.00;99.90
43679;DHT22;29279;50.858;4.392;2023-11-19T05:57:06;11.90;99.90
43679;DHT22;29279;50.858;4.392;2023-11-19T05:59:35;11.90;99.90
43679;DHT22;29279;50.858;4.392;2023-11-19T06:02:02;11.90;99.90
43679;DHT22;29279;50.858;4.392;2023-11-19T06:04:28;11.90;99.90
43679;DHT22;29279;50.858;4.392;2023-11-19T06:06:54;11.90;99.90
43679;DHT22;29279;50.858;4.392;2023-11-19T06:09:22;11.90;99.90
43679;DHT22;29279;50.858;4.392;2023-11-19T06:11:51;11.90;99.90
43679;DHT22;29279;50.858;4.392;2023-11-19T06:14:18;12.00;99.90
43679;DHT22;29279;50.858;4.392;2023-11-19T06:16:43;11.90;99.90
43679;DHT22;29279;50.858;4.392;2023-11-19T06:19:09;11.90;99.90
43679;DHT22;29279;50.858;4.392;2023-11-19T06:21:36;11.90;99.90
43679;DHT22;29279;50.858;4.392;2023-11-19T06:24:02;11.90;99.90
43679;DHT22;29279;50.858;4.392;2023-11-19T06:26:28;11.90;99.90
43679;DHT22;29279;50.858;4.392;2023-11-19T06:28:54;11.90;99.90
43679;DHT22;29279;50.858;4.392;2023-11-19T06:31:20;11.90;99.90
43679;DHT22;29279;50.858;4.392;2023-11-19T06:33:46;11.90;99.90
43679;DHT22;29279;50.858;4.392;2023-11-19T06:36:14;11.90;99.90
43679;DHT22;29279;50.858;4.392;2023-11-19T06:38:42;11.80;99.90
43679;DHT22;29279;50.858;4.392;2023-11-19T06:41:08;11.70;99.90
43679;DHT22;29279;50.858;4.392;2023-11-19T06:43:35;11.90;99.90
43679;DHT22;29279;50.858;4.392;2023-11-19T06:46:01;11.90;99.90
43679;DHT22;29279;50.858;4.392;2023-11-19T06:48:27;11.90;99.90
43679;DHT22;29279;50.858;4.392;2023-11-19T06:50:52;12.00;99.90
43679;DHT22;29279;50.858;4.392;2023-11-19T06:53:19;11.90;99.90
43679;DHT22;29279;50.858;4.392;2023-11-19T06:55:44;11.80;99.90
43679;DHT22;29279;50.858;4.392;2023-11-19T06:58:10;11.60;99.90
43679;DHT22;29279;50.858;4.392;2023-11-19T07:00:37;11.60;99.90
43679;DHT22;29279;50.858;4.392;2023-11-19T07:03:03;11.60;99.90
43679;DHT22;29279;50.858;4.392;2023-11-19T07:05:29;11.50;99.90
43679;DHT22;29279;50.858;4.392;2023-11-19T07:07:55;11.50;99.90
43679;DHT22;29279;50.858;4.392;2023-11-19T07:10:21;11.50;99.90
43679;DHT22;29279;50.858;4.392;2023-11-19T07:12:47;11.50;99.90
43679;DHT22;29279;50.858;4.392;2023-11-19T07:15:13;11.50;99.90
43679;DHT22;29279;50.858;4.392;2023-11-19T07:17:39;11.60;99.90
43679;DHT22;29279;50.858;4.392;2023-11-19T07:20:09;11.70;99.90
43679;DHT22;29279;50.858;4.392;2023-11-19T07:22:38;11.70;99.90
43679;DHT22;29279;50.858;4.392;2023-11-19T07:25:04;11.80;99.90
43679;DHT22;29279;50.858;4.392;2023-11-19T07:27:30;11.80;99.90
43679;DHT22;29279;50.858;4.392;2023-11-19T07:29:56;11.80;99.90
43679;DHT22;29279;50.858;4.392;2023-11-19T07:32:21;11.80;99.90
43679;DHT22;29279;50.858;4.392;2023-11-19T07:34:47;11.80;99.90
43679;DHT22;29279;50.858;4.392;2023-11-19T07:37:13;11.80;99.90
43679;DHT22;29279;50.858;4.392;2023-11-19T07:39:38;11.80;99.90
43679;DHT22;29279;50.858;4.392;2023-11-19T07:42:06;11.90;99.90
43679;DHT22;29279;50.858;4.392;2023-11-19T07:44:32;12.00;99.90
43679;DHT22;29279;50.858;4.392;2023-11-19T07:46:57;12.20;99.90
43679;DHT22;29279;50.858;4.392;2023-11-19T07:49:24;12.30;99.90
43679;DHT22;29279;50.858;4.392;2023-11-19T07:51:49;12.40;99.90
43679;DHT22;29279;50.858;4.392;2023-11-19T07:54:15;12.60;99.90
43679;DHT22;29279;50.858;4.392;2023-11-19T07:56:40;12.60;99.90
43679;DHT22;29279;50.858;4.392;2023-11-19T07:59:06;12.60;99.90
43679;DHT22;29279;50.858;4.392;2023-11-19T08:01:32;12.50;99.90
43679;DHT22;29279;50.858;4.392;2023-11-19T08:03:58;12.40;99.90
43679;DHT22;29279;50.858;4.392;2023-11-19T08:06:24;12.40;99.90
43679;DHT22;29279;50.858;4.392;2023-11-19T08:08:50;12.40;99.90
43679;DHT22;29279;50.858;4.392;2023-11-19T08:11:17;12.20;99.90
43679;DHT22;29279;50.858;4.392;2023-11-19T08:13:42;12.50;99.90
43679;DHT22;29279;50.858;4.392;2023-11-19T08:16:08;12.90;99.90
43679;DHT22;29279;50.858;4.392;2023-11-19T08:18:35;13.30;99.90
43679;DHT22;29279;50.858;4.392;2023-11-19T08:21:00;13.40;99.90
43679;DHT22;29279;50.858;4.392;2023-11-19T08:23:26;13.60;99.90
43679;DHT22;29279;50.858;4.392;2023-11-19T08:25:54;13.70;99.90
43679;DHT22;29279;50.858;4.392;2023-11-19T08:28:19;14.00;99.90
43679;DHT22;29279;50.858;4.392;2023-11-19T08:30:46;14.20;99.90
43679;DHT22;29279;50.858;4.392;2023-11-19T08:33:11;14.40;99.90
43679;DHT22;29279;50.858;4.392;2023-11-19T08:35:37;14.50;99.90
43679;DHT22;29279;50.858;4.392;2023-11-19T08:38:02;14.20;99.90
43679;DHT22;29279;50.858;4.392;2023-11-19T08:40:28;13.90;99.90
43679;DHT22;29279;50.858;4.392;2023-11-19T08:42:55;13.50;99.90
43679;DHT22;29279;50.858;4.392;2023-11-19T08:45:21;13.20;99.90
43679;DHT22;29279;50.858;4.392;2023-11-19T08:47:47;12.90;99.90
43679;DHT22;29279;50.858;4.392;2023-11-19T08:50:12;12.70;99.90
43679;DHT22;29279;50.858;4.392;2023-11-19T08:52:38;12.40;99.90
43679;DHT22;29279;50.858;4.392;2023-11-19T08:55:04;12.20;99.90
43679;DHT22;29279;50.858;4.392;2023-11-19T08:57:31;12.20;99.90
43679;DHT22;29279;50.858;4.392;2023-11-19T08:59:58;12.20;99.90
43679;DHT22;29279;50.858;4.392;2023-11-19T09:02:24;12.10;99.90
43679;DHT22;29279;50.858;4.392;2023-11-19T09:04:50;12.30;99.90
43679;DHT22;29279;50.858;4.392;2023-11-19T09:07:16;12.30;99.90
43679;DHT22;29279;50.858;4.392;2023-11-19T09:09:41;12.30;99.90
43679;DHT22;29279;50.858;4.392;2023-11-19T09:12:07;12.20;99.90
43679;DHT22;29279;50.858;4.392;2023-11-19T09:14:33;12.10;99.90
43679;DHT22;29279;50.858;4.392;2023-11-19T09:16:59;12.40;99.90
43679;DHT22;29279;50.858;4.392;2023-11-19T09:19:25;13.00;99.90
43679;DHT22;29279;50.858;4.392;2023-11-19T09:21:54;14.00;99.90
43679;DHT22;29279;50.858;4.392;2023-11-19T09:24:20;14.60;99.90
43679;DHT22;29279;50.858;4.392;2023-11-19T09:26:45;15.20;99.90
43679;DHT22;29279;50.858;4.392;2023-11-19T09:29:11;14.70;99.90
43679;DHT22;29279;50.858;4.392;2023-11-19T09:31:39;14.60;99.90
43679;DHT22;29279;50.858;4.392;2023-11-19T09:34:05;14.90;99.90
43679;DHT22;29279;50.858;4.392;2023-11-19T09:36:31;14.30;99.90
43679;DHT22;29279;50.858;4.392;2023-11-19T09:38:57;14.70;99.90
43679;DHT22;29279;50.858;4.392;2023-11-19T09:41:23;15.70;99.90
43679;DHT22;29279;50.858;4.392;2023-11-19T09:43:50;16.10;99.90
43679;DHT22;29279;50.858;4.392;2023-11-19T09:46:16;16.50;99.90
43679;DHT22;29279;50.858;4.392;2023-11-19T09:48:42;16.90;99.90
43679;DHT22;29279;50.858;4.392;2023-11-19T09:51:11;16.90;99.90
43679;DHT22;29279;50.858;4.392;2023-11-19T09:53:37;16.90;99.90
43679;DHT22;29279;50.858;4.392;2023-11-19T09:56:05;17.20;99.90
43679;DHT22;29279;50.858;4.392;2023-11-19T09:58:33;17.10;99.90
43679;DHT22;29279;50.858;4.392;2023-11-19T10:00:59;16.60;99.90
43679;DHT22;29279;50.858;4.392;2023-11-19T10:03:32;17.20;99.90
43679;DHT22;29279;50.858;4.392;2023-11-19T10:05:59;17.10;99.90
43679;DHT22;29279;50.858;4.392;2023-11-19T10:08:26;17.30;99.90
43679;DHT22;29279;50.858;4.392;2023-11-19T10:10:52;17.80;99.90
43679;DHT22;29279;50.858;4.392;2023-11-19T10:13:17;17.80;99.90
43679;DHT22;29279;50.858;4.392;2023-11-19T10:15:43;17.40;99.90
43679;DHT22;29279;50.858;4.392;2023-11-19T10:18:09;17.00;99.90
43679;DHT22;29279;50.858;4.392;2023-11-19T10:20:41;16.60;99.90
43679;DHT22;29279;50.858;4.392;2023-11-19T10:23:07;16.20;99.90
43679;DHT22;29279;50.858;4.392;2023-11-19T10:25:33;16.30;99.90
43679;DHT22;29279;50.858;4.392;2023-11-19T10:27:59;15.70;99.90
43679;DHT22;29279;50.858;4.392;2023-11-19T10:30:30;15.40;99.90
43679;DHT22;29279;50.858;4.392;2023-11-19T10:33:09;16.20;99.90
43679;DHT22;29279;50.858;4.392;2023-11-19T10:35:56;16.50;99.90
43679;DHT22;29279;50.858;4.392;2023-11-19T10:38:23;16.00;99.90
43679;DHT22;29279;50.858;4.392;2023-11-19T10:40:50;15.70;99.90
43679;DHT22;29279;50.858;4.392;2023-11-19T10:43:22;15.30;99.90
43679;DHT22;29279;50.858;4.392;2023-11-19T10:45:48;14.80;99.90
43679;DHT22;29279;50.858;4.392;2023-11-19T10:48:15;14.40;99.90
43679;DHT22;29279;50.858;4.392;2023-11-19T10:50:42;14.30;99.90
43679;DHT22;29279;50.858;4.392;2023-11-19T10:53:11;14.00;99.90
43679;DHT22;29279;50.858;4.392;2023-11-19T10:55:38;13.90;99.90
43679;DHT22;29279;50.858;4.392;2023-11-19T10:58:06;14.30;99.90
43679;DHT22;29279;50.858;4.392;2023-11-19T11:00:54;15.40;99.90
43679;DHT22;29279;50.858;4.392;2023-11-19T11:03:21;16.70;99.90
43679;DHT22;29279;50.858;4.392;2023-11-19T11:05:52;17.40;99.90
43679;DHT22;29279;50.858;4.392;2023-11-19T11:08:19;17.10;99.90
43679;DHT22;29279;50.858;4.392;2023-11-19T11:10:52;16.60;99.90
43679;DHT22;29279;50.858;4.392;2023-11-19T11:13:18;15.90;99.90
43679;DHT22;29279;50.858;4.392;2023-11-19T11:15:45;15.30;99.90
43679;DHT22;29279;50.858;4.392;2023-11-19T11:18:12;14.80;99.90
43679;DHT22;29279;50.858;4.392;2023-11-19T11:20:39;14.40;99.90
43679;DHT22;29279;50.858;4.392;2023-11-19T11:27:06;13.90;99.90
43679;DHT22;29279;50.858;4.392;2023-11-19T11:29:03;13.70;99.90
43679;DHT22;29279;50.858;4.392;2023-11-19T11:31:39;13.60;99.90
43679;DHT22;29279;50.858;4.392;2023-11-19T11:39:40;15.00;99.90
43679;DHT22;29279;50.858;4.392;2023-11-19T11:50:15;18.40;99.90
43679;DHT22;29279;50.858;4.392;2023-11-19T11:55:33;19.90;99.90
43679;DHT22;29279;50.858;4.392;2023-11-19T11:58:00;19.60;99.90
43679;DHT22;29279;50.858;4.392;2023-11-19T12:02:59;18.20;99.90
43679;DHT22;29279;50.858;4.392;2023-11-19T12:05:26;17.30;99.90
43679;DHT22;29279;50.858;4.392;2023-11-19T12:08:03;17.00;99.90
43679;DHT22;29279;50.858;4.392;2023-11-19T12:10:31;16.80;99.90
43679;DHT22;29279;50.858;4.392;2023-11-19T12:13:01;16.20;99.90
43679;DHT22;29279;50.858;4.392;2023-11-19T12:15:27;16.10;99.90
43679;DHT22;29279;50.858;4.392;2023-11-19T12:17:56;15.50;99.90
43679;DHT22;29279;50.858;4.392;2023-11-19T12:20:23;14.90;99.90
43679;DHT22;29279;50.858;4.392;2023-11-19T12:22:50;14.50;99.90
43679;DHT22;29279;50.858;4.392;2023-11-19T12:25:17;14.20;99.90
43679;DHT22;29279;50.858;4.392;2023-11-19T12:27:47;13.90;99.90
43679;DHT22;29279;50.858;4.392;2023-11-19T12:30:17;13.90;99.90
43679;DHT22;29279;50.858;4.392;2023-11-19T12:32:45;13.80;99.90
43679;DHT22;29279;50.858;4.392;2023-11-19T12:35:12;13.70;99.90
43679;DHT22;29279;50.858;4.392;2023-11-19T12:37:46;13.60;99.90
43679;DHT22;29279;50.858;4.392;2023-11-19T12:40:18;13.50;99.90
43679;DHT22;29279;50.858;4.392;2023-11-19T12:42:48;13.40;99.90
43679;DHT22;29279;50.858;4.392;2023-11-19T12:45:14;13.40;99.90
43679;DHT22;29279;50.858;4.392;2023-11-19T12:47:44;13.40;99.90
43679;DHT22;29279;50.858;4.392;2023-11-19T12:50:13;13.30;99.90
43679;DHT22;29279;50.858;4.392;2023-11-19T12:52:39;13.40;99.90
43679;DHT22;29279;50.858;4.392;2023-11-19T12:55:25;13.40;99.90
43679;DHT22;29279;50.858;4.392;2023-11-19T12:57:51;13.40;99.90
43679;DHT22;29279;50.858;4.392;2023-11-19T13:00:25;13.50;99.90
43679;DHT22;29279;50.858;4.392;2023-11-19T13:02:53;13.40;99.90
43679;DHT22;29279;50.858;4.392;2023-11-19T13:05:29;13.50;99.90
43679;DHT22;29279;50.858;4.392;2023-11-19T13:08:06;13.50;99.90
43679;DHT22;29279;50.858;4.392;2023-11-19T13:10:33;13.60;99.90
43679;DHT22;29279;50.858;4.392;2023-11-19T13:13:09;13.60;99.90
43679;DHT22;29279;50.858;4.392;2023-11-19T13:15:35;13.50;99.90
43679;DHT22;29279;50.858;4.392;2023-11-19T13:18:01;13.40;99.90
43679;DHT22;29279;50.858;4.392;2023-11-19T13:20:28;13.40;99.90
43679;DHT22;29279;50.858;4.392;2023-11-19T13:23:01;13.50;99.90
43679;DHT22;29279;50.858;4.392;2023-11-19T13:25:27;13.60;99.90
43679;DHT22;29279;50.858;4.392;2023-11-19T13:27:54;13.60;99.90
43679;DHT22;29279;50.858;4.392;2023-11-19T13:30:20;13.60;99.90
43679;DHT22;29279;50.858;4.392;2023-11-19T13:32:46;13.60;99.90
43679;DHT22;29279;50.858;4.392;2023-11-19T13:35:12;13.50;99.90
43679;DHT22;29279;50.858;4.392;2023-11-19T13:37:38;13.40;99.90
43679;DHT22;29279;50.858;4.392;2023-11-19T13:40:06;13.30;99.90
43679;DHT22;29279;50.858;4.392;2023-11-19T13:42:32;13.30;99.90
43679;DHT22;29279;50.858;4.392;2023-11-19T13:44:57;13.30;99.90
43679;DHT22;29279;50.858;4.392;2023-11-19T13:47:23;13.40;99.90
43679;DHT22;29279;50.858;4.392;2023-11-19T13:49:49;13.90;99.90
43679;DHT22;29279;50.858;4.392;2023-11-19T13:52:15;13.90;99.90
43679;DHT22;29279;50.858;4.392;2023-11-19T13:54:41;13.80;99.90
43679;DHT22;29279;50.858;4.392;2023-11-19T13:57:06;13.90;99.90
43679;DHT22;29279;50.858;4.392;2023-11-19T13:59:32;13.60;99.90
43679;DHT22;29279;50.858;4.392;2023-11-19T14:01:58;13.40;99.90
43679;DHT22;29279;50.858;4.392;2023-11-19T14:04:24;13.30;99.90
43679;DHT22;29279;50.858;4.392;2023-11-19T14:06:50;13.30;99.90
43679;DHT22;29279;50.858;4.392;2023-11-19T14:09:16;13.30;99.90
43679;DHT22;29279;50.858;4.392;2023-11-19T14:11:43;13.30;99.90
43679;DHT22;29279;50.858;4.392;2023-11-19T14:14:08;13.30;99.90
43679;DHT22;29279;50.858;4.392;2023-11-19T14:16:34;13.30;99.90
43679;DHT22;29279;50.858;4.392;2023-11-19T14:19:00;13.30;99.90
43679;DHT22;29279;50.858;4.392;2023-11-19T14:21:25;13.30;99.90
43679;DHT22;29279;50.858;4.392;2023-11-19T14:23:52;13.30;99.90
43679;DHT22;29279;50.858;4.392;2023-11-19T14:26:18;13.20;99.90
43679;DHT22;29279;50.858;4.392;2023-11-19T14:28:44;13.10;99.90
43679;DHT22;29279;50.858;4.392;2023-11-19T14:31:10;13.00;99.90
43679;DHT22;29279;50.858;4.392;2023-11-19T14:33:35;12.70;99.90
43679;DHT22;29279;50.858;4.392;2023-11-19T14:36:03;12.50;99.90
43679;DHT22;29279;50.858;4.392;2023-11-19T14:38:29;12.30;99.90
43679;DHT22;29279;50.858;4.392;2023-11-19T14:40:55;12.30;99.90
43679;DHT22;29279;50.858;4.392;2023-11-19T14:43:21;12.20;99.90
43679;DHT22;29279;50.858;4.392;2023-11-19T14:45:46;12.10;99.90
43679;DHT22;29279;50.858;4.392;2023-11-19T14:48:12;12.10;99.90
43679;DHT22;29279;50.858;4.392;2023-11-19T14:50:38;12.10;99.90
43679;DHT22;29279;50.858;4.392;2023-11-19T14:53:03;12.10;99.90
43679;DHT22;29279;50.858;4.392;2023-11-19T14:55:29;12.20;99.90
43679;DHT22;29279;50.858;4.392;2023-11-19T14:57:55;12.20;99.90
43679;DHT22;29279;50.858;4.392;2023-11-19T15:00:22;12.20;99.90
43679;DHT22;29279;50.858;4.392;2023-11-19T15:02:48;12.20;99.90
43679;DHT22;29279;50.858;4.392;2023-11-19T15:05:13;12.30;99.90
43679;DHT22;29279;50.858;4.392;2023-11-19T15:07:39;12.30;99.90
43679;DHT22;29279;50.858;4.392;2023-11-19T15:10:06;12.30;99.90
43679;DHT22;29279;50.858;4.392;2023-11-19T15:12:36;12.30;99.90
43679;DHT22;29279;50.858;4.392;2023-11-19T15:15:06;12.30;99.90
43679;DHT22;29279;50.858;4.392;2023-11-19T15:17:32;12.30;99.90
43679;DHT22;29279;50.858;4.392;2023-11-19T15:19:58;12.30;99.90
43679;DHT22;29279;50.858;4.392;2023-11-19T15:22:24;12.40;99.90
43679;DHT22;29279;50.858;4.392;2023-11-19T15:24:49;12.40;99.90
43679;DHT22;29279;50.858;4.392;2023-11-19T15:27:15;12.50;99.90
43679;DHT22;29279;50.858;4.392;2023-11-19T15:29:41;12.60;99.90
43679;DHT22;29279;50.858;4.392;2023-11-19T15:32:06;12.60;99.90
43679;DHT22;29279;50.858;4.392;2023-11-19T15:34:33;12.60;99.90
43679;DHT22;29279;50.858;4.392;2023-11-19T15:36:59;12.50;99.90
43679;DHT22;29279;50.858;4.392;2023-11-19T15:39:26;12.50;99.90
43679;DHT22;29279;50.858;4.392;2023-11-19T15:41:52;12.60;99.90
43679;DHT22;29279;50.858;4.392;2023-11-19T15:44:18;12.60;99.90
43679;DHT22;29279;50.858;4.392;2023-11-19T15:46:44;12.60;99.90
43679;DHT22;29279;50.858;4.392;2023-11-19T15:49:09;12.70;99.90
43679;DHT22;29279;50.858;4.392;2023-11-19T15:51:36;12.70;99.90